Royal Center, IN (46978)

2:17 PM EDT on September 02, 2014 (GMT -0400)
Logansport Municipal | Change Station
CLOSE
Current Station
Airport
Location: Logansport,
Elevation: 738 ft
Nearby Weather Stations

Elev 738 ft 40.71 °N, 86.37 °W | Updated 22 minutes ago

Mostly Cloudy
Mostly Cloudy
73 °F
Feels Like 73 °F
N
13
Wind Variable Wind from WSW
Gusts 16 mph

Today
High -- | Low -- °F
--% Chance of Precip.
Yesterday
High -- | Low -- °F
Precip. -- in
7:13 AM 8:16 PM
First Quarter, 53% visible
Pressure 29.94 in
Visibility 10.0 miles
Clouds Mostly Cloudy 1900 ft
Mostly Cloudy 2500 ft
Mostly Cloudy 4900 ft
Dew Point 64 °F
Humidity 73%
Rainfall 0.13 in
Snow Depth Not available.
UV 5 out of 12
Pollen 7.70 out of 12
Air Quality Not available.
Flu Activity Not available.
METAR KGGP 021755Z AUTO 24011G14KT 10SM BKN019 BKN025 BKN049 23/18 A2994 RMK AO2

More Conditions Fewer Conditions

Pressure 29.94 in
Visibility 10.0 miles
Clouds Mostly Cloudy 1900 ft
Mostly Cloudy 2500 ft
Mostly Cloudy 4900 ft
Dew Point 64 °F
Humidity 73%
Rainfall 0.13 in
Snow Depth Not available.
UV 5 out of 12
Pollen 7.70 out of 12
Air Quality Not available.
Flu Activity Not available.
METAR KGGP 021755Z AUTO 24011G14KT 10SM BKN019 BKN025 BKN049 23/18 A2994 RMK AO2

More Conditions Fewer Conditions

10-Day Weather Forecast

Almanac

Astronomy

Sep. 02, 2014 Rise Set
Actual Time 7:13 AM EDT 8:16 PM EDT
Civil Twilight 6:45 AM EDT 8:44 PM EDT
Nautical Twilight 6:12 AM EDT 9:18 PM EDT
Astronomical Twilight 5:37 AM EDT 9:52 PM EDT
Moon 3:00 PM EDT 12:16 AM EDT
Length of Visible Light 13h 59m
Length of Day
13h 02m
Tomorrow will be 2m 37s shorter.
First Quarter, 53% of the Moon is Illuminated
Today
First Quarter
Sep 8
Full
Sep 15
Last Quarter
Sep 24
New
Oct 1
First Quarter

Today's Extremes

State Highs State Lows

Community

WunderPhotos

Upload Photos

1,749,723 photos uploaded!

WunderBlogs® & News

Nearby

Snow Depth

Station Depth Elevation
No new snow has been reported.

Earthquake Activity

City Distance Mag. Time & Date
No recent earthquake activity has been reported nearby.
Minimum magnitude displayed is 2.5.

Coastal Water Temperatures

Place Temperature
No Stations Reporting

Nearby Weather Stations